createdAt,value
2023-05-01T00:01:29.856Z,10.65
2023-05-01T00:03:57.493Z,10.75
2023-05-01T00:06:25.104Z,7.55
2023-05-01T00:08:52.471Z,10.15
2023-05-01T00:11:19.792Z,10.10
2023-05-01T00:13:47.349Z,8.30
2023-05-01T00:16:15.196Z,7.45
2023-05-01T00:18:42.521Z,6.97
2023-05-01T00:21:09.858Z,10.65
2023-05-01T00:23:37.309Z,12.75
2023-05-01T00:26:04.905Z,14.23
2023-05-01T00:28:33.000Z,10.07
2023-05-01T00:31:00.394Z,13.50
2023-05-01T00:33:27.871Z,9.73
2023-05-01T00:35:56.259Z,12.93
2023-05-01T00:38:24.525Z,11.13
2023-05-01T00:40:51.851Z,12.05
2023-05-01T00:43:19.208Z,13.57
2023-05-01T00:45:47.577Z,12.82
2023-05-01T00:48:16.203Z,11.57
2023-05-01T00:50:45.054Z,15.13
2023-05-01T00:53:12.818Z,19.60
2023-05-01T00:55:42.905Z,21.80
2023-05-01T00:58:11.865Z,16.33
2023-05-01T01:00:39.365Z,19.98
2023-05-01T01:03:06.945Z,23.27
2023-05-01T01:05:41.486Z,27.77
2023-05-01T01:10:54.795Z,19.67
2023-05-01T01:13:31.048Z,23.80
2023-05-01T01:16:22.971Z,29.40
2023-05-01T01:19:30.539Z,22.15
2023-05-01T01:22:05.084Z,20.70
2023-05-01T01:25:12.113Z,16.70
2023-05-01T01:30:57.033Z,15.50
2023-05-01T01:33:51.215Z,18.77
2023-05-01T01:36:35.129Z,19.70
2023-05-01T01:41:49.432Z,15.70
2023-05-01T01:44:24.895Z,15.98
2023-05-01T01:46:54.767Z,12.65
2023-05-01T01:49:25.853Z,14.15
2023-05-01T01:51:56.137Z,13.05
2023-05-01T01:54:30.902Z,13.52
2023-05-01T01:57:00.512Z,14.15
2023-05-01T01:59:31.173Z,12.20
2023-05-01T02:01:59.369Z,12.02
2023-05-01T02:04:28.079Z,10.63
2023-05-01T02:06:58.091Z,11.52
2023-05-01T02:09:27.311Z,11.02
2023-05-01T02:11:58.259Z,20.67
2023-05-01T02:14:27.075Z,10.35
2023-05-01T02:16:54.487Z,10.93
2023-05-01T02:19:22.034Z,9.40
2023-05-01T02:21:50.245Z,9.18
2023-05-01T02:24:18.599Z,11.80
2023-05-01T02:26:49.720Z,9.75
2023-05-01T02:29:17.221Z,11.88
2023-05-01T02:31:44.660Z,10.55
2023-05-01T02:34:12.576Z,7.78
2023-05-01T02:36:40.020Z,11.75
2023-05-01T02:39:07.682Z,9.57
2023-05-01T02:41:35.896Z,9.68
2023-05-01T02:44:05.220Z,8.90
2023-05-01T02:46:36.334Z,8.57
2023-05-01T02:51:32.719Z,9.02
2023-05-01T02:54:00.643Z,8.35
2023-05-01T02:56:28.855Z,12.30
2023-05-01T02:58:56.471Z,9.32
2023-05-01T03:01:24.089Z,6.82
2023-05-01T03:03:52.551Z,7.65
2023-05-01T03:06:23.059Z,5.82
2023-05-01T03:08:50.885Z,7.47
2023-05-01T03:11:18.172Z,7.93
2023-05-01T03:13:46.645Z,7.70
2023-05-01T03:16:14.069Z,7.28
2023-05-01T03:18:41.488Z,7.95
2023-05-01T03:21:09.212Z,8.77
2023-05-01T03:23:38.661Z,8.02
2023-05-01T03:26:06.937Z,7.88
2023-05-01T03:28:34.517Z,7.88
2023-05-01T03:31:02.522Z,8.57
2023-05-01T03:33:31.985Z,7.22
2023-05-01T03:36:01.661Z,7.45
2023-05-01T03:38:29.158Z,8.23
2023-05-01T03:41:22.944Z,7.20
2023-05-01T03:44:10.298Z,5.95
2023-05-01T03:46:42.617Z,8.75
2023-05-01T03:49:15.325Z,9.52
2023-05-01T03:51:47.593Z,8.25
2023-05-01T03:54:15.517Z,9.07
2023-05-01T03:56:57.246Z,7.57
2023-05-01T03:59:25.420Z,9.63
2023-05-01T04:01:53.132Z,8.70
2023-05-01T04:04:21.560Z,8.52
2023-05-01T04:06:55.693Z,8.85
2023-05-01T04:09:23.174Z,12.18
2023-05-01T04:11:50.538Z,9.95
2023-05-01T04:14:17.858Z,9.85
2023-05-01T04:16:45.627Z,8.98
2023-05-01T04:19:13.872Z,10.00
2023-05-01T04:21:44.370Z,8.48
2023-05-01T04:24:11.872Z,8.77
2023-05-01T04:26:39.716Z,8.93
2023-05-01T04:29:07.698Z,8.82
2023-05-01T04:31:35.249Z,9.30
2023-05-01T04:34:02.695Z,8.35
2023-05-01T04:36:30.005Z,6.93
2023-05-01T04:38:57.593Z,9.07
2023-05-01T04:41:25.099Z,6.00
2023-05-01T04:43:53.134Z,7.30
2023-05-01T04:46:20.751Z,5.65
2023-05-01T04:48:48.236Z,9.13
2023-05-01T04:51:16.197Z,7.00
2023-05-01T04:53:43.556Z,7.72
2023-05-01T04:56:20.558Z,6.28
2023-05-01T04:58:50.171Z,6.60
2023-05-01T05:01:21.507Z,4.80
2023-05-01T05:03:50.357Z,6.35
2023-05-01T05:06:18.402Z,8.10
2023-05-01T05:08:46.330Z,7.32
2023-05-01T05:11:29.340Z,7.70
2023-05-01T05:14:02.858Z,8.80
2023-05-01T05:16:30.997Z,7.78
2023-05-01T05:18:58.489Z,6.40
2023-05-01T05:21:28.702Z,6.70
2023-05-01T05:23:58.072Z,7.55
2023-05-01T05:26:27.013Z,8.88
2023-05-01T05:29:13.018Z,8.65
2023-05-01T05:31:40.489Z,6.38
2023-05-01T05:34:23.684Z,7.63
2023-05-01T05:36:51.099Z,5.88
2023-05-01T05:39:38.384Z,8.10
2023-05-01T05:42:06.326Z,7.88
2023-05-01T05:44:49.477Z,8.50
2023-05-01T05:47:17.203Z,8.57
2023-05-01T05:50:00.309Z,7.35
2023-05-01T05:52:28.296Z,5.88
2023-05-01T05:54:57.078Z,6.13
2023-05-01T05:57:25.171Z,7.00
2023-05-01T06:00:10.301Z,8.90
2023-05-01T06:02:51.126Z,8.65
2023-05-01T06:05:20.817Z,6.07
2023-05-01T06:07:48.293Z,7.32
2023-05-01T06:10:15.712Z,7.28
2023-05-01T06:12:47.893Z,5.70
2023-05-01T06:15:19.914Z,8.20
2023-05-01T06:17:53.224Z,6.97
2023-05-01T06:20:20.684Z,7.97
2023-05-01T06:22:50.821Z,6.60
2023-05-01T06:25:24.332Z,8.43
2023-05-01T06:27:51.913Z,9.35
2023-05-01T06:30:22.219Z,9.50
2023-05-01T06:32:50.436Z,7.35
2023-05-01T06:35:18.313Z,9.73
2023-05-01T06:38:01.306Z,12.40
2023-05-01T06:40:28.935Z,12.13
2023-05-01T06:42:56.420Z,8.45
2023-05-01T06:45:27.879Z,9.52
2023-05-01T06:47:55.547Z,10.38
2023-05-01T06:50:23.134Z,10.55
2023-05-01T06:52:50.507Z,10.90
2023-05-01T06:55:17.958Z,9.80
2023-05-01T06:57:45.446Z,10.95
2023-05-01T07:00:14.076Z,14.32
2023-05-01T07:02:41.918Z,11.82
2023-05-01T07:05:09.766Z,11.13
2023-05-01T07:07:38.943Z,13.48
2023-05-01T07:10:09.711Z,9.88
2023-05-01T07:12:37.269Z,8.65
2023-05-01T07:15:05.186Z,9.60
2023-05-01T07:17:32.852Z,11.55
2023-05-01T07:20:01.576Z,9.15
2023-05-01T07:22:30.913Z,9.77
2023-05-01T07:24:58.462Z,12.65
2023-05-01T07:27:25.933Z,12.55
2023-05-01T07:29:54.229Z,9.00
2023-05-01T07:32:21.991Z,9.45
2023-05-01T07:34:49.450Z,9.45
2023-05-01T07:37:17.019Z,10.32
2023-05-01T07:39:44.694Z,8.25
2023-05-01T07:42:12.175Z,7.38
2023-05-01T07:44:39.554Z,10.25
2023-05-01T07:47:07.408Z,9.70
2023-05-01T07:49:37.766Z,6.93
2023-05-01T07:52:07.955Z,7.70
2023-05-01T07:54:35.304Z,8.45
2023-05-01T07:57:03.999Z,9.38
2023-05-01T07:59:31.346Z,6.32
2023-05-01T08:01:58.852Z,8.07
2023-05-01T08:04:28.064Z,6.80
2023-05-01T08:06:56.154Z,10.00
2023-05-01T08:09:23.821Z,8.18
2023-05-01T08:11:51.242Z,7.45
2023-05-01T08:14:19.664Z,7.90
2023-05-01T08:16:47.206Z,6.88
2023-05-01T08:19:14.834Z,6.25
2023-05-01T08:21:44.992Z,8.45
2023-05-01T08:24:13.019Z,7.97
2023-05-01T08:26:40.525Z,6.75
2023-05-01T08:29:08.023Z,7.72
2023-05-01T08:31:38.149Z,5.80
2023-05-01T08:34:06.513Z,6.50
2023-05-01T08:36:34.667Z,6.65
2023-05-01T08:39:02.279Z,6.72
2023-05-01T08:41:31.556Z,5.55
2023-05-01T08:44:00.401Z,8.30
2023-05-01T08:46:48.771Z,5.70
2023-05-01T08:49:33.404Z,7.47
2023-05-01T08:52:02.758Z,7.10
2023-05-01T08:54:32.549Z,6.20
2023-05-01T08:57:04.917Z,5.95
2023-05-01T08:59:34.722Z,5.95
2023-05-01T09:02:04.687Z,8.25
2023-05-01T09:04:35.905Z,8.02
2023-05-01T09:07:04.015Z,6.93
2023-05-01T09:09:33.002Z,7.85
2023-05-01T09:12:21.578Z,6.43
2023-05-01T09:14:49.542Z,7.30
2023-05-01T09:17:17.195Z,7.20
2023-05-01T09:19:44.786Z,5.88
2023-05-01T09:22:12.406Z,6.38
2023-05-01T09:24:39.923Z,7.38
2023-05-01T09:27:07.928Z,4.70
2023-05-01T09:32:22.309Z,6.80
2023-05-01T09:34:51.259Z,6.20
2023-05-01T09:37:35.082Z,8.40
2023-05-01T09:42:52.447Z,7.97
2023-05-01T09:45:20.753Z,4.82
2023-05-01T09:47:48.707Z,4.20
2023-05-01T09:50:34.018Z,6.13
2023-05-01T09:53:02.340Z,6.78
2023-05-01T09:55:29.905Z,7.20
2023-05-01T09:57:59.046Z,5.38
2023-05-01T10:00:27.129Z,4.80
2023-05-01T10:02:54.728Z,6.90
2023-05-01T10:05:23.324Z,5.47
2023-05-01T10:08:10.989Z,7.15
2023-05-01T10:10:38.731Z,6.22
2023-05-01T10:13:21.870Z,5.25
2023-05-01T10:15:50.499Z,4.60
2023-05-01T10:18:18.959Z,5.00
2023-05-01T10:20:46.712Z,6.22
2023-05-01T10:23:14.683Z,4.40
2023-05-01T10:25:42.788Z,5.68
2023-05-01T10:28:11.584Z,4.60
2023-05-01T10:30:40.609Z,6.32
2023-05-01T10:33:08.671Z,5.55
2023-05-01T10:35:39.562Z,6.47
2023-05-01T10:38:09.937Z,4.78
2023-05-01T10:48:54.924Z,9.52
2023-05-01T10:51:27.570Z,5.38
2023-05-01T10:56:53.897Z,5.10
2023-05-01T10:59:21.802Z,8.45
2023-05-01T11:01:52.247Z,4.70
2023-05-01T11:15:45.079Z,5.10
2023-05-01T11:18:13.034Z,5.35
2023-05-01T11:20:49.078Z,4.45
2023-05-01T11:23:18.123Z,3.28
2023-05-01T11:26:05.243Z,4.90
2023-05-01T11:28:33.530Z,4.43
2023-05-01T11:31:01.218Z,5.45
2023-05-01T11:33:28.682Z,4.13
2023-05-01T11:36:12.008Z,4.57
2023-05-01T11:38:40.213Z,6.13
2023-05-01T11:41:07.647Z,4.93
2023-05-01T11:43:49.744Z,4.57
2023-05-01T11:46:24.506Z,6.28
2023-05-01T11:48:51.958Z,3.65
2023-05-01T11:51:19.553Z,4.93
2023-05-01T11:54:06.581Z,6.10
2023-05-01T11:56:35.119Z,4.95
2023-05-01T11:59:13.463Z,6.82
2023-05-01T12:01:42.347Z,6.90
2023-05-01T12:04:10.248Z,4.22
2023-05-01T12:06:44.049Z,5.32
2023-05-01T12:09:18.921Z,6.43
2023-05-01T12:11:49.067Z,5.80
2023-05-01T12:14:19.039Z,6.47
2023-05-01T12:16:47.306Z,4.38
2023-05-01T12:19:16.267Z,7.15
2023-05-01T12:21:44.005Z,4.25
2023-05-01T12:24:12.666Z,5.35
2023-05-01T12:26:40.925Z,4.25
2023-05-01T12:29:23.997Z,4.60
2023-05-01T12:31:51.642Z,7.65
2023-05-01T12:34:19.196Z,4.65
2023-05-01T12:36:54.170Z,4.32
2023-05-01T12:39:39.526Z,6.65
2023-05-01T12:42:13.564Z,6.40
2023-05-01T12:44:41.336Z,3.42
2023-05-01T12:47:09.816Z,5.00
2023-05-01T12:49:38.199Z,6.63
2023-05-01T12:52:08.054Z,4.47
2023-05-01T12:54:38.449Z,4.95
2023-05-01T12:57:15.352Z,6.18
2023-05-01T12:59:46.674Z,5.55
2023-05-01T13:02:16.490Z,6.68
2023-05-01T13:04:45.416Z,4.78
2023-05-01T13:07:15.429Z,4.20
2023-05-01T13:10:00.538Z,4.03
2023-05-01T13:12:29.470Z,4.07
2023-05-01T13:14:57.850Z,3.40
2023-05-01T13:17:30.994Z,4.78
2023-05-01T13:22:36.595Z,2.88
2023-05-01T13:25:05.982Z,4.30
2023-05-01T13:27:49.991Z,3.30
2023-05-01T13:30:22.719Z,6.90
2023-05-01T13:32:50.566Z,4.47
2023-05-01T13:35:24.234Z,4.85
2023-05-01T13:37:52.985Z,4.28
2023-05-01T13:40:21.749Z,5.78
2023-05-01T13:42:53.145Z,3.72
2023-05-01T13:45:36.722Z,4.07
2023-05-01T13:50:31.430Z,3.88
2023-05-01T13:52:59.502Z,5.85
2023-05-01T13:55:26.906Z,4.00
2023-05-01T13:58:10.150Z,3.63
2023-05-01T14:00:38.697Z,3.88
2023-05-01T14:03:06.488Z,3.58
2023-05-01T14:05:34.029Z,6.20
2023-05-01T14:08:02.515Z,5.47
2023-05-01T14:10:29.948Z,2.38
2023-05-01T14:12:59.187Z,3.25
2023-05-01T14:15:27.366Z,4.55
2023-05-01T14:17:54.932Z,3.08
2023-05-01T14:20:25.708Z,2.95
2023-05-01T14:22:53.985Z,2.83
2023-05-01T14:28:16.304Z,3.95
2023-05-01T14:30:44.266Z,2.53
2023-05-01T14:33:12.809Z,1.88
2023-05-01T14:35:49.262Z,2.47
2023-05-01T14:38:18.756Z,3.40
2023-05-01T14:40:46.823Z,2.00
2023-05-01T14:43:17.432Z,2.50
2023-05-01T14:45:46.988Z,2.70
2023-05-01T14:48:23.413Z,2.47
2023-05-01T14:50:52.272Z,2.75
2023-05-01T14:53:19.950Z,3.65
2023-05-01T14:55:51.512Z,4.78
2023-05-01T14:58:19.203Z,3.03
2023-05-01T15:00:47.941Z,4.18
2023-05-01T15:03:15.653Z,4.82
2023-05-01T15:05:44.726Z,2.90
2023-05-01T15:08:12.475Z,3.80
2023-05-01T15:10:39.843Z,4.95
2023-05-01T15:13:07.438Z,2.92
2023-05-01T15:15:34.902Z,3.10
2023-05-01T15:18:04.268Z,3.72
2023-05-01T15:20:32.026Z,3.38
2023-05-01T15:22:59.582Z,4.10
2023-05-01T15:25:27.145Z,3.70
2023-05-01T15:27:55.360Z,3.78
2023-05-01T15:30:22.886Z,2.75
2023-05-01T15:32:50.468Z,4.10
2023-05-01T15:35:18.337Z,5.53
2023-05-01T15:37:46.695Z,5.50
2023-05-01T15:40:14.366Z,5.10
2023-05-01T15:42:42.011Z,4.95
2023-05-01T15:45:10.528Z,5.47
2023-05-01T15:47:38.440Z,5.72
2023-05-01T15:50:11.198Z,4.63
2023-05-01T15:52:39.539Z,5.13
2023-05-01T15:55:07.669Z,5.05
2023-05-01T15:57:35.246Z,5.95
2023-05-01T16:00:03.259Z,5.30
2023-05-01T16:02:44.835Z,5.03
2023-05-01T16:05:14.077Z,6.20
2023-05-01T16:07:41.702Z,6.28
2023-05-01T16:10:09.852Z,5.07
2023-05-01T16:12:37.524Z,6.15
2023-05-01T16:15:06.031Z,5.55
2023-05-01T16:17:46.943Z,6.05
2023-05-01T16:20:30.740Z,4.65
2023-05-01T16:22:59.407Z,3.80
2023-05-01T16:25:27.046Z,6.80
2023-05-01T16:27:54.581Z,6.55
2023-05-01T16:30:42.580Z,3.13
2023-05-01T16:33:19.295Z,4.88
2023-05-01T16:35:48.795Z,4.25
2023-05-01T16:38:17.187Z,3.85
2023-05-01T16:40:45.163Z,5.40
2023-05-01T16:43:13.028Z,6.45
2023-05-01T16:45:40.844Z,4.90
2023-05-01T16:48:08.195Z,4.80
2023-05-01T16:50:41.464Z,5.10
2023-05-01T16:53:09.030Z,4.63
2023-05-01T16:55:36.458Z,5.95
2023-05-01T16:58:03.872Z,5.55
2023-05-01T17:00:31.599Z,6.68
2023-05-01T17:02:59.690Z,5.38
2023-05-01T17:05:27.233Z,5.57
2023-05-01T17:07:54.873Z,5.68
2023-05-01T17:10:22.269Z,5.88
2023-05-01T17:12:49.802Z,6.13
2023-05-01T17:15:17.271Z,7.47
2023-05-01T17:17:44.800Z,4.05
2023-05-01T17:20:12.858Z,4.07
2023-05-01T17:22:40.556Z,3.45
2023-05-01T17:25:08.935Z,3.55
2023-05-01T17:27:38.069Z,3.50
2023-05-01T17:30:06.276Z,2.72
2023-05-01T17:32:37.397Z,6.78
2023-05-01T17:35:06.297Z,3.75
2023-05-01T17:37:35.803Z,2.28
2023-05-01T17:40:04.384Z,3.45
2023-05-01T17:42:32.132Z,3.13
2023-05-01T17:44:59.670Z,3.88
2023-05-01T17:47:28.108Z,1.88
2023-05-01T17:49:56.007Z,2.60
2023-05-01T17:52:39.634Z,3.20
2023-05-01T17:55:07.568Z,3.15
2023-05-01T17:57:35.046Z,2.85
2023-05-01T18:00:02.786Z,1.75
2023-05-01T18:02:48.044Z,2.10
2023-05-01T18:05:15.642Z,2.42
2023-05-01T18:07:43.013Z,2.97
2023-05-01T18:10:11.345Z,3.15
2023-05-01T18:12:54.394Z,2.65
2023-05-01T18:15:23.091Z,2.72
2023-05-01T18:17:50.989Z,2.85
2023-05-01T18:20:18.383Z,2.03
2023-05-01T18:22:46.069Z,2.42
2023-05-01T18:25:14.328Z,2.10
2023-05-01T18:27:42.918Z,2.20
2023-05-01T18:30:10.661Z,2.42
2023-05-01T18:32:47.529Z,3.65
2023-05-01T18:35:17.392Z,3.00
2023-05-01T18:37:44.908Z,2.22
2023-05-01T18:40:13.100Z,2.90
2023-05-01T18:42:42.136Z,2.60
2023-05-01T18:45:11.078Z,2.05
2023-05-01T18:47:38.594Z,2.03
2023-05-01T18:50:06.954Z,2.10
2023-05-01T18:52:37.270Z,3.45
2023-05-01T18:55:05.307Z,2.15
2023-05-01T18:57:32.843Z,2.05
2023-05-01T19:00:01.586Z,1.95
2023-05-01T19:02:32.338Z,2.95
2023-05-01T19:04:59.968Z,2.58
2023-05-01T19:07:27.466Z,2.72
2023-05-01T19:09:54.862Z,3.60
2023-05-01T19:12:22.250Z,2.60
2023-05-01T19:15:05.968Z,3.67
2023-05-01T19:20:17.255Z,4.43
2023-05-01T19:22:44.681Z,3.88
2023-05-01T19:25:27.816Z,2.83
2023-05-01T19:27:56.272Z,2.08
2023-05-01T19:30:24.020Z,2.80
2023-05-01T19:32:52.244Z,3.15
2023-05-01T19:35:19.610Z,3.97
2023-05-01T19:37:48.741Z,2.47
2023-05-01T19:40:17.636Z,3.40
2023-05-01T19:42:44.970Z,3.33
2023-05-01T19:45:12.346Z,3.35
2023-05-01T19:47:39.793Z,3.13
2023-05-01T19:50:08.413Z,2.35
2023-05-01T19:52:35.957Z,3.60
2023-05-01T19:55:05.429Z,2.33
2023-05-01T20:00:18.060Z,4.13
2023-05-01T20:02:45.963Z,2.90
2023-05-01T20:05:14.156Z,2.83
2023-05-01T20:07:41.681Z,2.35
2023-05-01T20:10:10.039Z,3.38
2023-05-01T20:12:37.632Z,2.53
2023-05-01T20:15:05.898Z,3.08
2023-05-01T20:17:50.497Z,2.15
2023-05-01T20:20:19.471Z,3.65
2023-05-01T20:22:47.181Z,3.88
2023-05-01T20:25:14.586Z,3.13
2023-05-01T20:27:42.822Z,2.33
2023-05-01T20:30:11.471Z,3.70
2023-05-01T20:32:44.483Z,3.35
2023-05-01T20:35:12.133Z,3.53
2023-05-01T20:37:39.735Z,3.08
2023-05-01T20:40:08.024Z,6.45
2023-05-01T20:42:35.407Z,3.67
2023-05-01T20:45:02.764Z,5.75
2023-05-01T20:47:32.533Z,3.58
2023-05-01T20:50:00.595Z,4.50
2023-05-01T20:52:28.474Z,4.95
2023-05-01T20:54:56.981Z,7.47
2023-05-01T20:57:24.355Z,5.88
2023-05-01T20:59:51.622Z,8.05
2023-05-01T21:02:19.049Z,6.85
2023-05-01T21:04:46.587Z,4.32
2023-05-01T21:07:14.186Z,7.03
2023-05-01T21:09:45.279Z,5.20
2023-05-01T21:12:13.309Z,4.65
2023-05-01T21:14:41.236Z,6.35
2023-05-01T21:17:09.907Z,4.38
2023-05-01T21:19:42.769Z,5.85
2023-05-01T21:22:25.772Z,4.65
2023-05-01T21:27:31.041Z,5.40
2023-05-01T21:30:00.505Z,4.60
2023-05-01T21:32:34.811Z,4.70
2023-05-01T21:35:02.968Z,4.30
2023-05-01T21:37:33.724Z,4.70
2023-05-01T21:40:02.021Z,3.75
2023-05-01T21:42:31.904Z,3.75
2023-05-01T21:45:00.230Z,5.13
2023-05-01T21:47:28.196Z,3.83
2023-05-01T21:49:57.332Z,4.18
2023-05-01T21:52:24.954Z,5.40
2023-05-01T21:54:52.368Z,3.42
2023-05-01T21:57:19.796Z,5.05
2023-05-01T21:59:48.584Z,3.28
2023-05-01T22:02:15.860Z,3.10
2023-05-01T22:04:43.276Z,6.05
2023-05-01T22:07:10.690Z,4.85
2023-05-01T22:09:38.319Z,6.25
2023-05-01T22:12:06.065Z,5.35
2023-05-01T22:14:46.223Z,6.00
2023-05-01T22:17:14.983Z,6.18
2023-05-01T22:19:42.393Z,4.45
2023-05-01T22:22:09.822Z,2.85
2023-05-01T22:24:37.337Z,3.63
2023-05-01T22:27:04.731Z,5.45
2023-05-01T22:29:32.067Z,4.30
2023-05-01T22:31:59.413Z,3.80
2023-05-01T22:34:27.015Z,5.45
2023-05-01T22:36:54.363Z,3.15
2023-05-01T22:39:22.504Z,3.70
2023-05-01T22:41:49.915Z,2.53
2023-05-01T22:44:17.298Z,3.05
2023-05-01T22:46:44.830Z,3.72
2023-05-01T22:49:12.440Z,3.97
2023-05-01T22:51:39.787Z,2.63
2023-05-01T22:54:07.116Z,3.30
2023-05-01T22:56:34.396Z,4.25
2023-05-01T22:59:01.797Z,2.22
2023-05-01T23:01:29.677Z,2.42
2023-05-01T23:03:57.525Z,3.72
2023-05-01T23:06:25.062Z,3.08
2023-05-01T23:08:54.118Z,3.85
2023-05-01T23:11:22.125Z,4.22
2023-05-01T23:13:50.436Z,2.40
2023-05-01T23:16:18.434Z,5.13
2023-05-01T23:18:46.042Z,3.10
2023-05-01T23:21:14.161Z,6.45
2023-05-01T23:23:45.569Z,3.42
2023-05-01T23:26:24.436Z,5.47
2023-05-01T23:28:53.373Z,4.93
2023-05-01T23:31:25.951Z,3.17
2023-05-01T23:33:55.008Z,5.68
2023-05-01T23:36:23.073Z,3.83
2023-05-01T23:38:50.462Z,5.15
2023-05-01T23:41:17.900Z,4.65
2023-05-01T23:43:48.224Z,3.90
2023-05-01T23:46:15.995Z,4.18
2023-05-01T23:48:43.488Z,5.45
2023-05-01T23:51:11.096Z,4.38
2023-05-01T23:53:38.493Z,5.03
2023-05-01T23:56:06.156Z,3.90
2023-05-01T23:58:33.384Z,5.00
